Carlos City, Indiana
Current Conditions -  °F | °C
As of 5:55 PM on Thursday 27 Nov 2014 (Local Time) from KVES Reporting Station
Overcast Overcast  
Wind Chill: 17°   Ceiling: 2300
Heat Index: 28°   Visibility: 10mi
Dew Point: 25°   Wind: 14mph
Humidity: 86%   Direction: 290°WNW
Pressure: 30.3"   Gusts: 22mph
Location:  40.0606°N, 84.9258°W
Report Text: KVES 272255Z AUTO 29012G19KT 10SM BKN023 BKN028 OVC038 M02/M04 A3030 RMK AO2
Loading
Personal Weather Stations






























Interactive Weather Map New forecast layout! Learn more

10-Day Weather Forecast

Advertisements
Track Severe Weather on mobile